createdAt,value
2023-04-03T00:01:11.902Z,99805.66
2023-04-03T00:03:39.664Z,99797.97
2023-04-03T00:06:08.037Z,99798.34
2023-04-03T00:08:36.264Z,99798.94
2023-04-03T00:11:04.724Z,99805.22
2023-04-03T00:13:33.313Z,99799.81
2023-04-03T00:16:01.095Z,99805.28
2023-04-03T00:18:28.780Z,99806.16
2023-04-03T00:20:56.300Z,99809.41
2023-04-03T00:23:24.655Z,99811.28
2023-04-03T00:25:52.936Z,99811.94
2023-04-03T00:28:21.349Z,99817.22
2023-04-03T00:30:52.301Z,99817.37
2023-04-03T00:33:22.659Z,99811.75
2023-04-03T00:35:50.473Z,99815.19
2023-04-03T00:38:18.617Z,99829.47
2023-04-03T00:40:48.652Z,99822.53
2023-04-03T00:43:22.887Z,99816.34
2023-04-03T00:45:52.893Z,99819.81
2023-04-03T00:48:42.074Z,99824.50
2023-04-03T00:51:21.423Z,99819.19
2023-04-03T00:53:55.994Z,99829.41
2023-04-03T00:56:26.355Z,99830.47
2023-04-03T00:58:59.891Z,99826.97
2023-04-03T01:01:28.976Z,99834.56
2023-04-03T01:03:56.788Z,99841.19
2023-04-03T01:06:28.262Z,99830.22
2023-04-03T01:09:00.314Z,99835.19
2023-04-03T01:11:28.232Z,99838.06
2023-04-03T01:13:56.074Z,99839.59
2023-04-03T01:16:25.252Z,99830.19
2023-04-03T01:18:52.895Z,99836.25
2023-04-03T01:21:52.400Z,99825.41
2023-04-03T01:24:31.314Z,99835.34
2023-04-03T01:27:00.376Z,99827.81
2023-04-03T01:29:28.099Z,99833.00
2023-04-03T01:31:58.272Z,99836.72
2023-04-03T01:34:26.533Z,99833.63
2023-04-03T01:36:54.470Z,99830.19
2023-04-03T01:39:22.624Z,99833.03
2023-04-03T01:41:51.125Z,99836.72
2023-04-03T01:44:18.788Z,99830.00
2023-04-03T01:46:46.288Z,99839.34
2023-04-03T01:49:14.070Z,99837.78
2023-04-03T01:51:41.656Z,99840.13
2023-04-03T01:54:09.454Z,99845.50
2023-04-03T01:56:37.172Z,99841.72
2023-04-03T01:59:04.655Z,99847.19
2023-04-03T02:01:32.094Z,99851.28
2023-04-03T02:03:59.835Z,99852.41
2023-04-03T02:06:27.963Z,99843.63
2023-04-03T02:08:55.430Z,99847.87
2023-04-03T02:11:23.172Z,99849.00
2023-04-03T02:13:50.674Z,99846.88
2023-04-03T02:16:18.143Z,99851.44
2023-04-03T02:18:45.916Z,99850.34
2023-04-03T02:21:13.414Z,99851.16
2023-04-03T02:23:40.849Z,99862.84
2023-04-03T02:26:11.839Z,99856.00
2023-04-03T02:28:39.352Z,99848.56
2023-04-03T02:31:09.612Z,99862.19
2023-04-03T02:33:38.855Z,99863.63
2023-04-03T02:36:08.891Z,99863.00
2023-04-03T02:38:37.594Z,99850.84
2023-04-03T02:41:07.480Z,99856.75
2023-04-03T02:43:35.606Z,99856.19
2023-04-03T02:46:04.751Z,99862.06
2023-04-03T02:48:32.920Z,99868.19
2023-04-03T02:51:00.301Z,99854.00
2023-04-03T02:53:28.073Z,99854.28
2023-04-03T02:55:55.540Z,99858.69
2023-04-03T02:58:22.914Z,99859.41
2023-04-03T03:00:51.229Z,99862.03
2023-04-03T03:03:18.610Z,99863.31
2023-04-03T03:05:46.303Z,99856.28
2023-04-03T03:08:13.969Z,99860.69
2023-04-03T03:10:41.405Z,99867.94
2023-04-03T03:13:08.817Z,99867.06
2023-04-03T03:15:36.511Z,99880.16
2023-04-03T03:18:03.987Z,99884.28
2023-04-03T03:20:31.441Z,99880.88
2023-04-03T03:22:59.234Z,99886.03
2023-04-03T03:25:26.636Z,99886.78
2023-04-03T03:27:54.024Z,99884.34
2023-04-03T03:30:21.892Z,99885.50
2023-04-03T03:32:49.481Z,99882.09
2023-04-03T03:35:16.972Z,99879.53
2023-04-03T03:37:44.669Z,99885.03
2023-04-03T03:40:14.010Z,99881.63
2023-04-03T03:42:41.479Z,99885.59
2023-04-03T03:45:09.909Z,99884.19
2023-04-03T03:47:37.620Z,99881.56
2023-04-03T03:50:05.764Z,99875.09
2023-04-03T03:52:33.487Z,99877.88
2023-04-03T03:55:01.023Z,99878.84
2023-04-03T03:57:29.789Z,99874.34
2023-04-03T03:59:59.027Z,99875.12
2023-04-03T04:02:27.202Z,99874.69
2023-04-03T04:04:55.042Z,99871.09
2023-04-03T04:07:23.196Z,99881.75
2023-04-03T04:09:50.789Z,99878.03
2023-04-03T04:12:18.476Z,99868.50
2023-04-03T04:14:47.663Z,99868.94
2023-04-03T04:17:16.518Z,99869.25
2023-04-03T04:19:44.478Z,99871.72
2023-04-03T04:22:12.529Z,99879.47
2023-04-03T04:24:40.081Z,99870.66
2023-04-03T04:27:08.463Z,99882.88
2023-04-03T04:29:38.175Z,99871.94
2023-04-03T04:32:06.178Z,99884.28
2023-04-03T04:34:33.994Z,99883.81
2023-04-03T04:37:02.002Z,99884.41
2023-04-03T04:39:30.352Z,99890.91
2023-04-03T04:41:58.283Z,99889.59
2023-04-03T04:44:26.493Z,99889.56
2023-04-03T04:46:54.306Z,99893.25
2023-04-03T04:49:22.141Z,99894.16
2023-04-03T04:51:52.324Z,99900.50
2023-04-03T04:54:20.712Z,99894.41
2023-04-03T04:56:48.852Z,99895.59
2023-04-03T04:59:16.378Z,99896.59
2023-04-03T05:01:44.022Z,99897.53
2023-04-03T05:04:13.680Z,99905.31
2023-04-03T05:06:41.410Z,99899.09
2023-04-03T05:09:10.830Z,99898.75
2023-04-03T05:11:38.984Z,99907.34
2023-04-03T05:14:07.643Z,99900.09
2023-04-03T05:16:35.824Z,99898.78
2023-04-03T05:19:03.929Z,99902.41
2023-04-03T05:21:33.502Z,99912.50
2023-04-03T05:24:03.798Z,99904.00
2023-04-03T05:26:32.831Z,99903.38
2023-04-03T05:29:00.595Z,99907.22
2023-04-03T05:31:30.524Z,99906.97
2023-04-03T05:33:58.991Z,99909.00
2023-04-03T05:36:27.262Z,99905.12
2023-04-03T05:38:57.328Z,99899.69
2023-04-03T05:41:26.178Z,99901.22
2023-04-03T05:43:53.733Z,99903.59
2023-04-03T05:46:22.134Z,99898.16
2023-04-03T05:48:50.921Z,99906.12
2023-04-03T05:51:21.503Z,99915.28
2023-04-03T05:53:53.837Z,99913.84
2023-04-03T05:56:21.652Z,99916.13
2023-04-03T05:58:49.149Z,99916.16
2023-04-03T06:01:17.137Z,99918.22
2023-04-03T06:03:45.330Z,99913.94
2023-04-03T06:06:15.041Z,99908.84
2023-04-03T06:08:42.479Z,99920.94
2023-04-03T06:11:10.526Z,99928.50
2023-04-03T06:13:38.224Z,99919.75
2023-04-03T06:16:06.614Z,99918.16
2023-04-03T06:18:34.382Z,99919.41
2023-04-03T06:21:03.728Z,99919.34
2023-04-03T06:23:31.399Z,99917.47
2023-04-03T06:25:59.293Z,99911.97
2023-04-03T06:28:27.387Z,99911.03
2023-04-03T06:30:54.856Z,99911.66
2023-04-03T06:33:22.539Z,99916.81
2023-04-03T06:35:49.963Z,99916.81
2023-04-03T06:38:19.750Z,99913.47
2023-04-03T06:40:48.161Z,99917.34
2023-04-03T06:43:15.774Z,99924.16
2023-04-03T06:45:43.120Z,99925.13
2023-04-03T06:48:11.080Z,99927.84
2023-04-03T06:50:38.519Z,99931.25
2023-04-03T06:53:07.002Z,99928.50
2023-04-03T06:55:34.691Z,99935.19
2023-04-03T06:58:02.513Z,99941.13
2023-04-03T07:00:30.350Z,99941.88
2023-04-03T07:02:58.590Z,99950.38
2023-04-03T07:05:26.986Z,99943.31
2023-04-03T07:07:54.675Z,99951.19
2023-04-03T07:10:22.325Z,99948.91
2023-04-03T07:12:49.719Z,99950.38
2023-04-03T07:15:17.177Z,99946.44
2023-04-03T07:17:45.149Z,99955.25
2023-04-03T07:20:12.771Z,99951.66
2023-04-03T07:22:40.635Z,99955.00
2023-04-03T07:25:08.567Z,99949.75
2023-04-03T07:27:36.058Z,99938.75
2023-04-03T07:30:04.127Z,99950.56
2023-04-03T07:32:32.036Z,99960.12
2023-04-03T07:35:00.570Z,99954.38
2023-04-03T07:37:28.883Z,99945.78
2023-04-03T07:39:58.147Z,99952.81
2023-04-03T07:42:28.707Z,99956.34
2023-04-03T07:44:56.416Z,99957.25
2023-04-03T07:47:23.991Z,99960.00
2023-04-03T07:49:51.409Z,99958.31
2023-04-03T07:52:19.166Z,99960.09
2023-04-03T07:54:46.586Z,99965.31
2023-04-03T07:57:14.170Z,99963.56
2023-04-03T07:59:43.616Z,99970.53
2023-04-03T08:02:11.373Z,99966.19
2023-04-03T08:04:39.440Z,99974.91
2023-04-03T08:07:07.302Z,99973.19
2023-04-03T08:09:34.745Z,99974.09
2023-04-03T08:12:02.448Z,99974.06
2023-04-03T08:14:32.378Z,99978.37
2023-04-03T08:16:59.938Z,99975.81
2023-04-03T08:19:27.837Z,99973.22
2023-04-03T08:21:56.329Z,99967.97
2023-04-03T08:24:24.072Z,99972.28
2023-04-03T08:26:51.794Z,99984.47
2023-04-03T08:29:19.264Z,99977.50
2023-04-03T08:31:47.289Z,99980.09
2023-04-03T08:34:15.650Z,99976.66
2023-04-03T08:36:43.605Z,99966.22
2023-04-03T08:39:11.632Z,99970.56
2023-04-03T08:41:41.019Z,99967.94
2023-04-03T08:44:34.148Z,99969.69
2023-04-03T08:47:33.693Z,99968.75
2023-04-03T08:50:10.624Z,99967.06
2023-04-03T08:52:52.478Z,99973.94
2023-04-03T08:55:29.716Z,99964.41
2023-04-03T08:58:06.910Z,99968.66
2023-04-03T09:00:57.364Z,99973.84
2023-04-03T09:03:25.169Z,99964.28
2023-04-03T09:06:08.188Z,99969.41
2023-04-03T09:08:51.195Z,99974.53
2023-04-03T09:11:33.795Z,99979.78
2023-04-03T09:14:03.962Z,99969.31
2023-04-03T09:16:38.032Z,99977.84
2023-04-03T09:19:32.114Z,99973.44
2023-04-03T09:22:04.413Z,99971.72
2023-04-03T09:24:31.928Z,99976.22
2023-04-03T09:27:09.036Z,99979.66
2023-04-03T09:29:41.460Z,99982.28
2023-04-03T09:32:27.370Z,99988.19
2023-04-03T09:34:59.708Z,99978.72
2023-04-03T09:37:44.974Z,99976.25
2023-04-03T09:40:36.232Z,99974.53
2023-04-03T09:43:22.839Z,99979.69
2023-04-03T09:45:51.822Z,99977.19
2023-04-03T09:48:24.692Z,99981.69
2023-04-03T09:50:53.927Z,99975.47
2023-04-03T09:53:30.275Z,99972.78
2023-04-03T09:55:58.859Z,99970.87
2023-04-03T09:58:46.783Z,99976.91
2023-04-03T10:01:30.234Z,99957.63
2023-04-03T10:04:05.560Z,99959.97
2023-04-03T10:06:36.509Z,99961.84
2023-04-03T10:09:07.419Z,99966.25
2023-04-03T10:11:34.850Z,99964.34
2023-04-03T10:14:04.253Z,99957.97
2023-04-03T10:16:58.390Z,99960.84
2023-04-03T10:19:29.442Z,99960.16
2023-04-03T10:22:04.854Z,99969.19
2023-04-03T10:24:41.432Z,99958.88
2023-04-03T10:27:16.810Z,99964.09
2023-04-03T10:29:53.222Z,99958.00
2023-04-03T10:32:23.890Z,99970.94
2023-04-03T10:35:04.679Z,99970.03
2023-04-03T10:37:48.818Z,99965.78
2023-04-03T10:40:26.025Z,99966.84
2023-04-03T10:43:23.784Z,99957.97
2023-04-03T10:45:58.588Z,99960.88
2023-04-03T10:48:41.630Z,99964.28
2023-04-03T10:51:31.273Z,99964.28
2023-04-03T10:54:07.499Z,99955.63
2023-04-03T10:56:53.285Z,99955.66
2023-04-03T10:59:40.290Z,99949.59
2023-04-03T11:02:32.516Z,99948.84
2023-04-03T11:05:16.768Z,99958.41
2023-04-03T11:07:48.325Z,99954.94
2023-04-03T11:10:20.624Z,99958.34
2023-04-03T11:12:51.522Z,99959.28
2023-04-03T11:15:22.318Z,99954.91
2023-04-03T11:17:55.150Z,99948.84
2023-04-03T11:20:28.703Z,99954.94
2023-04-03T11:23:13.381Z,99954.03
2023-04-03T11:25:44.294Z,99947.91
2023-04-03T11:28:14.492Z,99945.34
2023-04-03T11:30:42.912Z,99940.97
2023-04-03T11:33:21.823Z,99946.16
2023-04-03T11:35:53.264Z,99936.69
2023-04-03T11:38:27.597Z,99926.25
2023-04-03T11:40:56.247Z,99928.00
2023-04-03T11:43:33.901Z,99927.09
2023-04-03T11:46:06.253Z,99932.25
2023-04-03T11:48:36.847Z,99927.81
2023-04-03T11:51:13.725Z,99926.06
2023-04-03T11:53:41.831Z,99931.31
2023-04-03T11:56:24.495Z,99923.47
2023-04-03T11:59:10.614Z,99932.06
2023-04-03T12:01:59.116Z,99932.06
2023-04-03T12:04:28.652Z,99926.94
2023-04-03T12:07:14.558Z,99928.56
2023-04-03T12:09:43.045Z,99931.22
2023-04-03T12:12:37.112Z,99931.38
2023-04-03T12:15:23.255Z,99920.16
2023-04-03T12:17:52.698Z,99924.59
2023-04-03T12:20:52.333Z,99928.00
2023-04-03T12:23:32.451Z,99921.91
2023-04-03T12:26:05.028Z,99916.50
2023-04-03T12:28:37.175Z,99918.13
2023-04-03T12:31:05.369Z,99910.22
2023-04-03T12:33:51.129Z,99918.00
2023-04-03T12:36:38.909Z,99918.03
2023-04-03T12:39:19.167Z,99912.78
2023-04-03T12:41:54.436Z,99909.28
2023-04-03T12:44:50.935Z,99902.34
2023-04-03T12:47:37.122Z,99906.56
2023-04-03T12:50:14.401Z,99907.38
2023-04-03T12:52:46.577Z,99913.34
2023-04-03T12:55:21.752Z,99911.59
2023-04-03T12:57:49.702Z,99902.03
2023-04-03T13:00:21.313Z,99898.56
2023-04-03T13:02:49.191Z,99902.81
2023-04-03T13:05:19.469Z,99899.19
2023-04-03T13:07:51.341Z,99897.34
2023-04-03T13:10:20.065Z,99889.59
2023-04-03T13:12:48.925Z,99881.00
2023-04-03T13:15:24.133Z,99875.81
2023-04-03T13:17:53.752Z,99882.78
2023-04-03T13:20:24.147Z,99872.31
2023-04-03T13:23:07.548Z,99878.37
2023-04-03T13:25:37.677Z,99869.75
2023-04-03T13:28:14.046Z,99869.56
2023-04-03T13:30:56.045Z,99870.44
2023-04-03T13:33:26.496Z,99873.03
2023-04-03T13:36:24.844Z,99871.13
2023-04-03T13:39:06.391Z,99877.25
2023-04-03T13:41:39.357Z,99872.59
2023-04-03T13:44:22.122Z,99866.72
2023-04-03T13:46:53.562Z,99864.87
2023-04-03T13:49:28.458Z,99865.72
2023-04-03T13:52:07.479Z,99862.09
2023-04-03T13:54:38.568Z,99868.50
2023-04-03T13:57:16.031Z,99855.41
2023-04-03T13:59:46.656Z,99858.22
2023-04-03T14:02:24.774Z,99847.50
2023-04-03T14:05:00.903Z,99845.94
2023-04-03T14:07:30.483Z,99847.03
2023-04-03T14:09:58.280Z,99847.00
2023-04-03T14:12:31.935Z,99847.44
2023-04-03T14:15:02.161Z,99849.22
2023-04-03T14:17:30.065Z,99855.53
2023-04-03T14:19:59.117Z,99851.97
2023-04-03T14:22:32.442Z,99851.34
2023-04-03T14:25:00.456Z,99853.34
2023-04-03T14:27:38.541Z,99842.91
2023-04-03T14:30:10.645Z,99852.47
2023-04-03T14:32:38.273Z,99854.19
2023-04-03T14:35:06.173Z,99848.16
2023-04-03T14:37:34.540Z,99850.00
2023-04-03T14:40:04.771Z,99849.13
2023-04-03T14:42:34.935Z,99850.00
2023-04-03T14:45:05.075Z,99863.00
2023-04-03T14:47:33.160Z,99873.41
2023-04-03T14:50:02.407Z,99884.69
2023-04-03T14:52:33.567Z,99865.63
2023-04-03T14:55:01.850Z,99872.53
2023-04-03T14:57:30.655Z,99869.09
2023-04-03T14:59:58.796Z,99869.94
2023-04-03T15:02:31.323Z,99869.06
2023-04-03T15:05:00.184Z,99869.94
2023-04-03T15:07:29.827Z,99869.97
2023-04-03T15:09:57.620Z,99871.69
2023-04-03T15:12:25.823Z,99872.53
2023-04-03T15:15:00.843Z,99881.19
2023-04-03T15:17:30.955Z,99878.59
2023-04-03T15:19:59.284Z,99875.94
2023-04-03T15:22:26.714Z,99879.47
2023-04-03T15:24:54.640Z,99868.16
2023-04-03T15:27:22.340Z,99871.59
2023-04-03T15:29:49.782Z,99880.22
2023-04-03T15:32:17.553Z,99881.94
2023-04-03T15:34:45.188Z,99873.41
2023-04-03T15:37:12.590Z,99870.50
2023-04-03T15:39:40.272Z,99878.50
2023-04-03T15:42:07.691Z,99878.50
2023-04-03T15:44:35.896Z,99884.63
2023-04-03T15:47:03.987Z,99876.91
2023-04-03T15:49:33.932Z,99883.66
2023-04-03T15:52:01.774Z,99882.72
2023-04-03T15:54:30.540Z,99887.78
2023-04-03T15:56:58.202Z,99880.91
2023-04-03T15:59:25.932Z,99887.03
2023-04-03T16:01:53.956Z,99876.47
2023-04-03T16:04:22.144Z,99880.97
2023-04-03T16:06:50.047Z,99879.03
2023-04-03T16:09:17.711Z,99883.38
2023-04-03T16:11:45.448Z,99880.97
2023-04-03T16:14:12.930Z,99884.34
2023-04-03T16:16:40.508Z,99881.66
2023-04-03T16:19:08.443Z,99874.69
2023-04-03T16:21:35.901Z,99865.19
2023-04-03T16:24:03.421Z,99873.97
2023-04-03T16:26:31.228Z,99869.59
2023-04-03T16:28:58.643Z,99867.09
2023-04-03T16:31:26.503Z,99878.31
2023-04-03T16:33:54.374Z,99880.03
2023-04-03T16:36:21.996Z,99885.31
2023-04-03T16:38:49.745Z,99882.66
2023-04-03T16:41:17.409Z,99892.13
2023-04-03T16:43:44.828Z,99893.09
2023-04-03T16:46:12.321Z,99897.31
2023-04-03T16:48:40.109Z,99899.09
2023-04-03T16:51:07.564Z,99892.97
2023-04-03T16:53:35.069Z,99896.47
2023-04-03T16:56:02.838Z,99900.81
2023-04-03T16:58:30.223Z,99890.34
2023-04-03T17:00:57.708Z,99904.25
2023-04-03T17:03:26.782Z,99903.28
2023-04-03T17:05:54.503Z,99905.22
2023-04-03T17:08:21.912Z,99919.19
2023-04-03T17:10:51.646Z,99917.53
2023-04-03T17:13:19.018Z,99927.13
2023-04-03T17:15:46.414Z,99942.78
2023-04-03T17:18:14.318Z,99942.78
2023-04-03T17:20:41.730Z,99950.56
2023-04-03T17:23:09.148Z,99959.12
2023-04-03T17:25:36.871Z,99966.00
2023-04-03T17:28:04.574Z,99959.81
2023-04-03T17:30:32.203Z,99967.78
2023-04-03T17:32:59.957Z,99978.00
2023-04-03T17:35:27.370Z,99985.84
2023-04-03T17:37:54.799Z,99985.09
2023-04-03T17:40:22.796Z,99994.66
2023-04-03T17:42:50.544Z,99997.91
2023-04-03T17:45:18.094Z,100000.69
2023-04-03T17:47:46.618Z,100002.31
2023-04-03T17:50:16.302Z,100015.47
2023-04-03T17:52:43.782Z,100017.16
2023-04-03T17:55:13.097Z,100024.25
2023-04-03T17:57:40.548Z,100025.88
2023-04-03T18:00:09.325Z,100039.72
2023-04-03T18:02:39.953Z,100047.31
2023-04-03T18:05:10.079Z,100052.59
2023-04-03T18:07:38.654Z,100061.09
2023-04-03T18:10:08.654Z,100073.94
2023-04-03T18:12:37.468Z,100074.22
2023-04-03T18:15:05.592Z,100086.38
2023-04-03T18:17:32.913Z,100086.34
2023-04-03T18:20:00.670Z,100086.28
2023-04-03T18:22:29.139Z,100085.50
2023-04-03T18:24:57.022Z,100091.63
2023-04-03T18:27:26.686Z,100095.69
2023-04-03T18:29:57.427Z,100104.63
2023-04-03T18:32:25.427Z,100098.69
2023-04-03T18:34:52.904Z,100116.94
2023-04-03T18:37:21.702Z,100116.09
2023-04-03T18:39:49.436Z,100116.13
2023-04-03T18:42:19.923Z,100122.19
2023-04-03T18:44:51.817Z,100127.31
2023-04-03T18:47:19.491Z,100134.28
2023-04-03T18:49:46.962Z,100129.03
2023-04-03T18:52:14.712Z,100127.09
2023-04-03T18:54:43.349Z,100132.31
2023-04-03T18:57:10.723Z,100118.44
2023-04-03T18:59:38.639Z,100130.38
2023-04-03T19:02:07.604Z,100126.16
2023-04-03T19:04:35.392Z,100130.47
2023-04-03T19:07:05.495Z,100132.97
2023-04-03T19:09:33.606Z,100140.72
2023-04-03T19:12:02.022Z,100143.19
2023-04-03T19:14:29.474Z,100133.53
2023-04-03T19:16:57.482Z,100140.19
2023-04-03T19:19:25.088Z,100137.16
2023-04-03T19:21:52.482Z,100137.19
2023-04-03T19:24:21.593Z,100131.81
2023-04-03T19:26:48.946Z,100133.00
2023-04-03T19:29:16.636Z,100132.31
2023-04-03T19:31:44.384Z,100139.34
2023-04-03T19:34:11.899Z,100148.34
2023-04-03T19:36:39.576Z,100142.97
2023-04-03T19:39:07.695Z,100149.13
2023-04-03T19:41:36.715Z,100147.03
2023-04-03T19:44:05.790Z,100150.62
2023-04-03T19:46:34.303Z,100140.88
2023-04-03T19:49:02.010Z,100133.75
2023-04-03T19:51:29.531Z,100138.56
2023-04-03T19:53:57.310Z,100136.94
2023-04-03T19:56:24.681Z,100134.25
2023-04-03T19:58:54.162Z,100136.22
2023-04-03T20:01:24.268Z,100127.81
2023-04-03T20:03:52.373Z,100125.84
2023-04-03T20:06:19.894Z,100133.44
2023-04-03T20:08:47.479Z,100137.66
2023-04-03T20:11:15.390Z,100139.44
2023-04-03T20:13:42.889Z,100141.03
2023-04-03T20:16:10.419Z,100142.34
2023-04-03T20:18:38.733Z,100139.69
2023-04-03T20:21:07.552Z,100133.19
2023-04-03T20:23:37.195Z,100128.44
2023-04-03T20:26:13.848Z,100129.16
2023-04-03T20:28:43.235Z,100134.19
2023-04-03T20:31:13.695Z,100141.84
2023-04-03T20:33:41.433Z,100146.59
2023-04-03T20:36:09.114Z,100144.22
2023-04-03T20:38:36.795Z,100141.41
2023-04-03T20:41:04.929Z,100139.75
2023-04-03T20:43:32.390Z,100150.84
2023-04-03T20:46:01.554Z,100148.09
2023-04-03T20:48:31.175Z,100151.97
2023-04-03T20:50:59.215Z,100141.91
2023-04-03T20:53:27.626Z,100148.66
2023-04-03T20:55:59.978Z,100152.69
2023-04-03T20:58:30.477Z,100148.31
2023-04-03T21:00:58.437Z,100149.34
2023-04-03T21:03:32.918Z,100147.62
2023-04-03T21:06:00.821Z,100151.59
2023-04-03T21:09:06.658Z,100142.72
2023-04-03T21:12:12.120Z,100147.03
2023-04-03T21:15:17.460Z,100142.88
2023-04-03T21:18:16.927Z,100144.69
2023-04-03T21:20:47.396Z,100136.66
2023-04-03T21:23:15.706Z,100144.22
2023-04-03T21:25:43.211Z,100143.81
2023-04-03T21:28:10.585Z,100142.03
2023-04-03T21:30:38.586Z,100139.88
2023-04-03T21:33:05.999Z,100141.16
2023-04-03T21:35:33.574Z,100138.50
2023-04-03T21:38:01.303Z,100140.41
2023-04-03T21:40:28.714Z,100134.78
2023-04-03T21:42:56.283Z,100132.00
2023-04-03T21:45:24.143Z,100129.97
2023-04-03T21:47:51.975Z,100137.66
2023-04-03T21:50:19.572Z,100136.63
2023-04-03T21:52:47.310Z,100130.16
2023-04-03T21:55:15.475Z,100120.25
2023-04-03T21:57:43.576Z,100120.19
2023-04-03T22:00:11.763Z,100132.16
2023-04-03T22:02:40.892Z,100124.13
2023-04-03T22:05:08.386Z,100120.44
2023-04-03T22:07:35.775Z,100106.81
2023-04-03T22:10:04.430Z,100119.91
2023-04-03T22:12:32.622Z,100115.69
2023-04-03T22:15:00.475Z,100108.81
2023-04-03T22:17:31.312Z,100116.16
2023-04-03T22:19:58.764Z,100109.19
2023-04-03T22:22:26.498Z,100105.00
2023-04-03T22:24:55.557Z,100109.47
2023-04-03T22:27:23.087Z,100116.38
2023-04-03T22:29:50.552Z,100114.59
2023-04-03T22:32:18.298Z,100112.63
2023-04-03T22:34:46.376Z,100110.22
2023-04-03T22:37:13.767Z,100112.47
2023-04-03T22:39:41.456Z,100118.87
2023-04-03T22:42:08.828Z,100116.44
2023-04-03T22:44:36.663Z,100127.59
2023-04-03T22:47:04.608Z,100127.53
2023-04-03T22:49:32.118Z,100129.00
2023-04-03T22:51:59.657Z,100122.28
2023-04-03T22:54:27.494Z,100135.44
2023-04-03T22:56:55.495Z,100130.88
2023-04-03T22:59:22.936Z,100131.06
2023-04-03T23:01:50.661Z,100123.69
2023-04-03T23:04:18.341Z,100142.75
2023-04-03T23:06:45.731Z,100130.56
2023-04-03T23:09:13.446Z,100127.84
2023-04-03T23:11:40.863Z,100125.81
2023-04-03T23:14:08.306Z,100124.34
2023-04-03T23:16:36.037Z,100122.72
2023-04-03T23:19:03.559Z,100116.91
2023-04-03T23:21:31.007Z,100121.47
2023-04-03T23:23:58.645Z,100124.94
2023-04-03T23:26:26.493Z,100128.56
2023-04-03T23:28:53.962Z,100124.34
2023-04-03T23:31:22.766Z,100116.34
2023-04-03T23:33:50.325Z,100110.88
2023-04-03T23:36:17.736Z,100111.87
2023-04-03T23:38:45.460Z,100117.09
2023-04-03T23:41:13.110Z,100117.03
2023-04-03T23:43:41.590Z,100110.59
2023-04-03T23:46:09.590Z,100111.56
2023-04-03T23:48:37.054Z,100108.16
2023-04-03T23:51:04.693Z,100114.09
2023-04-03T23:53:32.429Z,100110.81
2023-04-03T23:56:00.172Z,100116.69
2023-04-03T23:58:27.578Z,100125.19
